Time;durP1;ratioP1;P1;durP2;ratioP2;P2;SDS_P1;SDS_P2;PMS_P1;PMS_P2;Temp;Humidity;BMP_temperature;BMP_pressure;BME280_temperature;BME280_humidity;BME280_pressure;Samples;Min_cycle;Max_cycle;Signal;HPM_P1;HPM_P2
2022/07/23 00:01:33;;;;;;;9.73;8.57;;;;;;;26.38;100.00;96322.53;5045035;28;20519;-50
2022/07/23 00:04:01;;;;;;;9.40;8.40;;;;;;;26.27;100.00;96318.88;5042442;28;20089;-58
2022/07/23 00:06:30;;;;;;;9.98;8.55;;;;;;;26.34;100.00;96314.09;5043854;28;20116;-51
2022/07/23 00:08:58;;;;;;;9.13;8.18;;;;;;;26.36;100.00;96301.16;5041839;28;20190;-56
2022/07/23 00:11:27;;;;;;;10.13;8.75;;;;;;;26.34;100.00;96306.00;5045575;28;20064;-50
2022/07/23 00:13:57;;;;;;;9.82;8.10;;;;;;;26.38;100.00;96300.91;5044175;28;20087;-50
2022/07/23 00:16:28;;;;;;;10.98;8.43;;;;;;;26.25;100.00;96292.06;5043500;28;20080;-49
2022/07/23 00:18:57;;;;;;;9.88;8.35;;;;;;;25.89;100.00;96293.41;5045854;28;20060;-59
2022/07/23 00:21:26;;;;;;;10.38;8.70;;;;;;;25.86;100.00;96298.50;5042173;28;20088;-53
2022/07/23 00:23:54;;;;;;;12.20;8.45;;;;;;;25.94;100.00;96290.78;5042043;28;20081;-53
2022/07/23 00:26:23;;;;;;;9.65;8.32;;;;;;;26.06;100.00;96285.31;5041808;28;20089;-50
2022/07/23 00:28:51;;;;;;;10.02;8.20;;;;;;;25.80;100.00;96294.88;5043037;28;20077;-51
2022/07/23 00:31:19;;;;;;;10.00;8.88;;;;;;;25.58;100.00;96294.75;5041630;28;20554;-62
2022/07/23 00:33:49;;;;;;;14.75;8.48;;;;;;;25.43;100.00;96297.16;5043131;28;20087;-60
2022/07/23 00:36:18;;;;;;;9.30;8.40;;;;;;;25.29;100.00;96294.78;5040041;28;20095;-56
2022/07/23 00:38:46;;;;;;;9.80;8.65;;;;;;;25.30;100.00;96309.91;5041916;28;20081;-56
2022/07/23 00:41:14;;;;;;;10.18;8.98;;;;;;;24.82;100.00;96315.69;5040844;28;20629;-60
2022/07/23 00:43:43;;;;;;;9.85;8.50;;;;;;;24.71;100.00;96308.41;5043688;28;20079;-54
2022/07/23 00:46:11;;;;;;;9.63;8.68;;;;;;;24.87;100.00;96303.09;5043818;28;20147;-58
2022/07/23 00:48:39;;;;;;;10.10;8.40;;;;;;;25.11;100.00;96308.47;5039318;28;20663;-55
2022/07/23 00:51:09;;;;;;;9.93;8.93;;;;;;;25.08;100.00;96303.50;5041465;28;20095;-55
2022/07/23 00:53:37;;;;;;;9.40;8.50;;;;;;;25.00;100.00;96291.22;5042036;28;20475;-53
2022/07/23 00:56:07;;;;;;;9.98;8.98;;;;;;;25.07;100.00;96294.59;5043122;28;20072;-51
2022/07/23 00:58:36;;;;;;;9.85;8.88;;;;;;;25.13;100.00;96300.97;5040878;28;20076;-62
2022/07/23 01:01:04;;;;;;;9.80;8.80;;;;;;;25.00;100.00;96303.91;5042045;28;20077;-53
2022/07/23 01:03:33;;;;;;;10.10;9.20;;;;;;;25.10;100.00;96302.22;5041457;28;20064;-48
2022/07/23 01:06:01;;;;;;;12.30;9.35;;;;;;;24.83;100.00;96323.53;5042224;28;20570;-57
2022/07/23 01:08:31;;;;;;;11.82;9.23;;;;;;;25.03;100.00;96323.13;5039661;28;20069;-59
2022/07/23 01:10:59;;;;;;;12.75;9.07;;;;;;;25.26;100.00;96319.56;5039159;28;20080;-55
2022/07/23 01:13:28;;;;;;;10.80;9.02;;;;;;;25.15;100.00;96320.41;5041314;28;20080;-60
2022/07/23 01:15:56;;;;;;;11.45;9.40;;;;;;;24.95;100.00;96333.47;5040781;28;20089;-56
2022/07/23 01:18:24;;;;;;;11.75;9.48;;;;;;;24.89;100.00;96369.50;5038673;28;20473;-65
2022/07/23 01:20:53;;;;;;;10.23;8.80;;;;;;;24.79;100.00;96383.59;5041703;28;20092;-57
2022/07/23 01:23:22;;;;;;;8.35;7.43;;;;;;;25.01;100.00;96381.06;5043893;28;20570;-52
2022/07/23 01:25:53;;;;;;;11.93;8.32;;;;;;;25.10;100.00;96404.75;5041174;28;20073;-58
2022/07/23 01:28:22;;;;;;;10.18;7.13;;;;;;;25.15;100.00;96400.56;5042099;28;20115;-56
2022/07/23 01:30:50;;;;;;;14.02;9.13;;;;;;;25.16;100.00;96416.53;5042367;28;20820;-49
2022/07/23 01:33:19;;;;;;;16.20;7.47;;;;;;;25.08;100.00;96433.03;5040655;28;20065;-54
2022/07/23 01:35:47;;;;;;;11.02;7.65;;;;;;;25.13;100.00;96444.00;5040922;28;20084;-54
2022/07/23 01:38:15;;;;;;;8.77;6.57;;;;;;;25.11;100.00;96459.59;5042773;28;20064;-60
2022/07/23 01:40:45;;;;;;;12.38;5.30;;;;;;;25.02;100.00;96458.28;5046162;28;20076;-54
2022/07/23 01:43:19;;;;;;;10.00;5.47;;;;;;;25.14;100.00;96448.31;5040410;28;20081;-55
2022/07/23 01:45:48;;;;;;;10.70;6.90;;;;;;;24.95;100.00;96468.34;5039138;28;20080;-58
2022/07/23 01:48:16;;;;;;;16.70;5.80;;;;;;;24.87;100.00;96491.13;5043025;28;20087;-55
2022/07/23 01:50:46;;;;;;;10.98;6.40;;;;;;;24.84;100.00;96489.72;5041594;28;20076;-50
2022/07/23 01:53:15;;;;;;;;;;;;;;;24.42;100.00;96499.75;5040175;28;20092;-47
2022/07/23 01:55:45;;;;;;;8.00;5.78;;;;;;;24.30;100.00;96506.97;5044876;28;19968;-49
2022/07/23 01:58:13;;;;;;;10.23;6.10;;;;;;;24.15;100.00;96507.38;5042877;28;20081;-48
2022/07/23 02:00:41;;;;;;;8.02;5.45;;;;;;;24.06;100.00;96517.66;5043629;28;20519;-49
2022/07/23 02:03:11;;;;;;;6.97;6.27;;;;;;;24.30;100.00;96496.19;5049930;28;20083;-50
2022/07/23 02:05:39;;;;;;;13.93;6.50;;;;;;;24.00;100.00;96488.94;5048912;28;20558;-56
2022/07/23 02:08:08;;;;;;;10.85;6.72;;;;;;;23.97;100.00;96499.34;5049241;28;20124;-51
2022/07/23 02:10:36;;;;;;;10.13;6.05;;;;;;;23.60;100.00;96505.56;5049658;28;20099;-46
2022/07/23 02:13:06;;;;;;;8.80;6.35;;;;;;;23.06;100.00;96507.22;5049932;28;20087;-60
2022/07/23 02:15:35;;;;;;;10.05;6.47;;;;;;;22.56;100.00;96517.16;5047621;28;20530;-47
2022/07/23 02:18:03;;;;;;;16.73;5.93;;;;;;;22.14;100.00;96535.59;5047556;28;20084;-45
2022/07/23 02:20:31;;;;;;;8.55;4.97;;;;;;;21.84;100.00;96528.09;5047190;28;20088;-45
2022/07/23 02:23:00;;;;;;;7.55;4.38;;;;;;;21.53;100.00;96532.34;5048630;28;20088;-52
2022/07/23 02:25:28;;;;;;;8.02;4.93;;;;;;;21.42;100.00;96519.59;5048870;28;20073;-53
2022/07/23 02:27:56;;;;;;;7.28;4.57;;;;;;;21.25;100.00;96535.28;5048744;28;20091;-50
2022/07/23 02:30:26;;;;;;;7.28;5.40;;;;;;;21.31;100.00;96533.63;5043746;28;20672;-46
2022/07/23 02:32:55;;;;;;;9.30;5.43;;;;;;;21.16;100.00;96568.72;5043208;28;20064;-52
2022/07/23 02:35:23;;;;;;;7.63;5.78;;;;;;;21.20;100.00;96588.75;5045987;28;20084;-47
2022/07/23 02:37:51;;;;;;;8.15;5.82;;;;;;;21.14;100.00;96607.53;5049069;28;20080;-49
2022/07/23 02:40:20;;;;;;;10.05;5.82;;;;;;;21.34;100.00;96586.91;5047578;28;20533;-46
2022/07/23 02:42:48;;;;;;;8.82;5.25;;;;;;;21.30;100.00;96565.00;5047354;28;20510;-45
2022/07/23 02:45:17;;;;;;;10.23;6.40;;;;;;;21.44;100.00;96575.72;5048778;28;20084;-45
2022/07/23 02:47:46;;;;;;;6.53;5.38;;;;;;;21.40;100.00;96574.50;5047555;28;20077;-44
2022/07/23 02:50:15;;;;;;;6.93;5.90;;;;;;;21.49;100.00;96573.25;5047479;28;20092;-49
2022/07/23 02:52:43;;;;;;;7.75;5.53;;;;;;;21.42;100.00;96562.53;5045830;28;20088;-44
2022/07/23 02:55:11;;;;;;;16.00;6.15;;;;;;;21.40;100.00;96548.47;5049729;28;20091;-49
2022/07/23 02:57:40;;;;;;;14.65;5.90;;;;;;;21.16;100.00;96533.03;5046889;28;20505;-54
2022/07/23 03:00:09;;;;;;;10.25;5.93;;;;;;;20.83;100.00;96509.78;5045526;28;20076;-53
2022/07/23 03:02:38;;;;;;;18.40;6.25;;;;;;;20.76;100.00;96501.75;5046988;28;20076;-49
2022/07/23 03:05:08;;;;;;;8.18;6.50;;;;;;;20.58;100.00;96488.19;5046122;28;20138;-50
2022/07/23 03:07:37;;;;;;;10.52;6.85;;;;;;;20.53;100.00;96494.13;5047543;28;20119;-49
2022/07/23 03:10:06;;;;;;;20.80;6.82;;;;;;;20.54;100.00;96508.34;5048941;28;20087;-48
2022/07/23 03:12:34;;;;;;;10.00;6.95;;;;;;;20.59;100.00;96503.22;5044010;28;20068;-47
2022/07/23 03:15:02;;;;;;;11.65;6.57;;;;;;;20.54;100.00;96498.47;5044154;28;20081;-49
2022/07/23 03:17:31;;;;;;;9.23;7.20;;;;;;;20.52;100.00;96489.00;5045589;28;20080;-46
2022/07/23 03:19:59;;;;;;;10.02;7.53;;;;;;;20.70;100.00;96496.41;5047512;28;20081;-53
2022/07/23 03:22:29;;;;;;;11.38;6.72;;;;;;;20.84;100.00;96506.91;5047694;28;20091;-52
2022/07/23 03:24:57;;;;;;;9.43;7.68;;;;;;;20.73;100.00;96509.38;5047731;28;20531;-45
2022/07/23 03:27:27;;;;;;;10.75;7.88;;;;;;;20.75;100.00;96507.31;5047089;28;20099;-47
2022/07/23 03:29:57;;;;;;;9.02;7.20;;;;;;;20.95;100.00;96504.63;5043612;28;20085;-51
2022/07/23 03:32:26;;;;;;;10.50;7.30;;;;;;;20.76;100.00;96498.25;5045546;28;20126;-47
2022/07/23 03:34:55;;;;;;;9.00;6.10;;;;;;;20.95;100.00;96494.72;5040678;28;20085;-51
2022/07/23 03:37:24;;;;;;;8.18;6.40;;;;;;;21.19;100.00;96479.81;5048723;28;20452;-56
2022/07/23 03:39:53;;;;;;;7.85;6.47;;;;;;;21.28;100.00;96467.00;5048504;28;20080;-44
2022/07/23 03:42:22;;;;;;;8.68;6.28;;;;;;;21.34;100.00;96466.19;5053891;28;20084;-51
2022/07/23 03:44:50;;;;;;;8.13;6.20;;;;;;;20.95;100.00;96486.66;5042754;28;20542;-46
2022/07/23 03:47:21;;;;;;;8.15;6.18;;;;;;;20.81;100.00;96475.13;5049109;28;20729;-45
2022/07/23 03:49:50;;;;;;;11.13;6.13;;;;;;;20.93;100.00;96471.84;5047311;28;20084;-46
2022/07/23 03:52:19;;;;;;;8.77;6.07;;;;;;;20.93;100.00;96472.66;5047076;28;20068;-51
2022/07/23 03:54:47;;;;;;;8.45;5.72;;;;;;;20.97;100.00;96473.88;5047110;28;20075;-54
2022/07/23 03:57:17;;;;;;;9.65;5.88;;;;;;;21.01;100.00;96471.59;5044792;28;20080;-53
2022/07/23 03:59:45;;;;;;;9.27;6.50;;;;;;;20.94;100.00;96470.81;5045373;28;20080;-50
2022/07/23 04:02:13;;;;;;;9.23;6.10;;;;;;;20.91;100.00;96480.06;5041450;28;20079;-56
2022/07/23 04:04:42;;;;;;;9.57;5.90;;;;;;;20.92;100.00;96462.13;5044383;28;20144;-57
2022/07/23 04:07:10;;;;;;;8.00;5.40;;;;;;;21.04;100.00;96457.78;5042246;28;20611;-52
2022/07/23 04:09:40;;;;;;;8.23;6.10;;;;;;;20.98;100.00;96453.25;5041035;28;20099;-49
2022/07/23 04:12:13;;;;;;;7.30;5.60;;;;;;;21.17;100.00;96448.88;5040494;28;20076;-48
2022/07/23 04:14:43;;;;;;;7.07;5.20;;;;;;;21.17;100.00;96438.97;5043045;28;20075;-48
2022/07/23 04:17:12;;;;;;;6.93;5.60;;;;;;;21.09;100.00;96458.81;5043849;28;20075;-55
2022/07/23 04:19:41;;;;;;;6.18;5.30;;;;;;;20.92;100.00;96456.78;5043452;28;20534;-52
2022/07/23 04:22:10;;;;;;;6.65;5.20;;;;;;;20.86;100.00;96451.22;5042769;28;20080;-50
2022/07/23 04:24:38;;;;;;;8.60;5.35;;;;;;;20.92;100.00;96444.22;5043556;28;20092;-60
2022/07/23 04:27:07;;;;;;;5.47;4.97;;;;;;;21.02;100.00;96428.47;5045180;28;20861;-55
2022/07/23 04:29:35;;;;;;;6.53;5.20;;;;;;;21.32;100.00;96422.59;5042174;28;20108;-51
2022/07/23 04:32:06;;;;;;;6.60;4.88;;;;;;;21.08;100.00;96433.00;5042511;28;20067;-48
2022/07/23 04:34:34;;;;;;;;;;;;;;;21.22;100.00;96433.78;5046373;28;20471;-47
2022/07/23 04:37:02;;;;;;;10.55;4.80;;;;;;;21.34;100.00;96417.91;5041642;28;19960;-56
2022/07/23 04:39:31;;;;;;;7.20;5.05;;;;;;;21.44;100.00;96404.84;5042517;28;20445;-50
2022/07/23 04:41:59;;;;;;;6.90;5.10;;;;;;;21.47;100.00;96404.44;5044705;28;20057;-61
2022/07/23 04:44:28;;;;;;;5.95;4.75;;;;;;;21.54;100.00;96421.31;5043933;28;20087;-51
2022/07/23 04:46:56;;;;;;;6.47;5.03;;;;;;;21.38;100.00;96431.72;5043326;28;20080;-52
2022/07/23 04:49:26;;;;;;;7.60;5.30;;;;;;;21.47;100.00;96433.09;5042799;28;20083;-56
2022/07/23 04:51:54;;;;;;;6.53;5.25;;;;;;;21.58;100.00;96432.44;5042000;28;20088;-55
2022/07/23 04:54:23;;;;;;;6.65;5.13;;;;;;;21.44;100.00;96431.69;5044155;28;20071;-59
2022/07/23 04:56:51;;;;;;;8.00;5.30;;;;;;;21.76;100.00;96429.84;5041492;28;20077;-48
2022/07/23 04:59:19;;;;;;;6.97;5.03;;;;;;;22.06;100.00;96431.94;5042026;28;20083;-47
2022/07/23 05:01:48;;;;;;;7.63;5.10;;;;;;;22.16;100.00;96420.72;5043186;28;20490;-48
2022/07/23 05:04:16;;;;;;;5.70;4.63;;;;;;;22.27;100.00;96415.47;5041963;28;20135;-53
2022/07/23 05:06:46;;;;;;;7.93;5.35;;;;;;;22.43;100.00;96421.31;5041192;28;20080;-56
2022/07/23 05:09:14;;;;;;;5.65;4.78;;;;;;;22.48;100.00;96414.25;5043192;28;20462;-52
2022/07/23 05:11:43;;;;;;;5.78;5.22;;;;;;;22.56;100.00;96413.13;5042935;28;20060;-56
2022/07/23 05:14:12;;;;;;;7.22;5.22;;;;;;;22.62;100.00;96417.63;5044468;28;20077;-48
2022/07/23 05:16:40;;;;;;;6.50;5.07;;;;;;;22.59;100.00;96406.50;5043665;28;20088;-52
2022/07/23 05:19:09;;;;;;;7.07;5.25;;;;;;;22.57;100.00;96404.03;5043850;28;20194;-47
2022/07/23 05:21:37;;;;;;;5.90;5.22;;;;;;;22.61;100.00;96410.63;5041703;28;20460;-53
2022/07/23 05:24:07;;;;;;;5.93;5.32;;;;;;;22.95;100.00;96411.09;5043628;28;20085;-56
2022/07/23 05:26:36;;;;;;;8.00;5.13;;;;;;;22.95;100.00;96409.28;5044423;28;20103;-54
2022/07/23 05:29:04;;;;;;;7.63;5.70;;;;;;;22.72;100.00;96414.44;5042858;28;20065;-50
2022/07/23 05:31:34;;;;;;;5.65;5.00;;;;;;;22.74;100.00;96412.34;5047059;28;20078;-48
2022/07/23 05:34:02;;;;;;;7.28;5.68;;;;;;;22.52;100.00;96418.13;5043314;28;20927;-46
2022/07/23 05:36:32;;;;;;;6.28;5.65;;;;;;;22.17;100.00;96417.81;5045120;28;20689;-53
2022/07/23 05:39:00;;;;;;;7.75;5.70;;;;;;;22.44;100.00;96423.81;5046076;28;20088;-55
2022/07/23 05:41:31;;;;;;;7.68;5.68;;;;;;;22.45;100.00;96414.69;5047345;28;20072;-49
2022/07/23 05:43:59;;;;;;;5.97;5.38;;;;;;;22.64;100.00;96420.94;5044965;28;20083;-59
2022/07/23 05:46:27;;;;;;;6.63;5.30;;;;;;;22.28;100.00;96427.84;5045430;28;20541;-55
2022/07/23 05:48:56;;;;;;;6.50;5.30;;;;;;;22.58;100.00;96437.94;5045103;28;20435;-57
2022/07/23 05:51:25;;;;;;;6.82;5.82;;;;;;;22.26;100.00;96445.22;5048191;28;20571;-53
2022/07/23 05:53:54;;;;;;;6.47;5.72;;;;;;;22.43;100.00;96454.38;5043982;28;20071;-51
2022/07/23 05:56:22;;;;;;;8.40;6.28;;;;;;;22.59;100.00;96449.50;5046978;28;20065;-56
2022/07/23 05:58:52;;;;;;;8.80;5.90;;;;;;;22.86;100.00;96450.09;5047578;28;20144;-52
2022/07/23 06:01:20;;;;;;;7.70;6.40;;;;;;;23.03;100.00;96451.19;5029727;28;20068;-58
2022/07/23 06:03:49;;;;;;;9.23;6.13;;;;;;;23.05;100.00;96459.00;5046832;28;20068;-47
2022/07/23 06:06:18;;;;;;;6.88;5.90;;;;;;;23.19;100.00;96457.81;5045852;28;20076;-47
2022/07/23 06:08:46;;;;;;;6.93;6.22;;;;;;;23.39;100.00;96447.63;5047032;28;20488;-46
2022/07/23 06:11:15;;;;;;;7.30;6.32;;;;;;;23.62;100.00;96451.50;5047269;28;20523;-56
2022/07/23 06:13:43;;;;;;;6.60;5.70;;;;;;;23.42;100.00;96449.88;5046539;28;20072;-54
2022/07/23 06:16:13;;;;;;;8.88;6.15;;;;;;;23.24;100.00;96447.22;5043072;28;20092;-52
2022/07/23 06:18:41;;;;;;;9.40;6.22;;;;;;;23.19;100.00;96452.44;5047401;28;20077;-54
2022/07/23 06:21:09;;;;;;;10.95;6.30;;;;;;;23.57;100.00;96436.06;5045609;28;20527;-55
2022/07/23 06:23:58;;;;;;;6.90;6.00;;;;;;;23.77;100.00;96429.59;5042477;28;21618;-49
2022/07/23 06:26:26;;;;;;;8.65;6.53;;;;;;;23.63;100.00;96431.63;5044539;28;20076;-52
2022/07/23 06:28:54;;;;;;;9.60;6.32;;;;;;;23.74;100.00;96428.16;5045570;28;20084;-47
2022/07/23 06:31:24;;;;;;;8.57;6.57;;;;;;;23.73;100.00;96426.53;5044911;28;20476;-56
2022/07/23 06:33:53;;;;;;;8.77;6.80;;;;;;;23.90;100.00;96427.53;5048351;28;20106;-49
2022/07/23 06:36:21;;;;;;;8.43;6.68;;;;;;;23.78;100.00;96425.84;5042937;28;20482;-50
2022/07/23 06:38:50;;;;;;;8.35;6.20;;;;;;;24.17;100.00;96419.06;5045883;28;20087;-59
2022/07/23 06:41:19;;;;;;;8.82;6.45;;;;;;;24.24;100.00;96408.97;5045006;28;20076;-50
2022/07/23 06:43:47;;;;;;;7.68;6.50;;;;;;;24.06;100.00;96409.91;5044673;28;20073;-46
2022/07/23 06:46:16;;;;;;;9.90;7.28;;;;;;;24.26;100.00;96406.88;5047261;28;20103;-59
2022/07/23 06:48:45;;;;;;;7.80;6.93;;;;;;;23.51;100.00;96399.28;5045120;28;20081;-52
2022/07/23 06:51:14;;;;;;;11.70;7.22;;;;;;;23.46;100.00;96389.16;5042157;28;20553;-56
2022/07/23 06:53:42;;;;;;;12.25;7.43;;;;;;;23.74;100.00;96389.66;5044413;28;20072;-47
2022/07/23 06:56:11;;;;;;;10.63;7.10;;;;;;;23.85;100.00;96397.78;5044275;28;20111;-49
2022/07/23 06:58:39;;;;;;;9.43;7.18;;;;;;;24.17;100.00;96430.66;5048763;28;20111;-47
2022/07/23 07:01:08;;;;;;;8.73;7.18;;;;;;;23.55;100.00;96467.75;5043909;28;20091;-54
2022/07/23 07:03:36;;;;;;;10.30;6.95;;;;;;;23.70;100.00;96491.59;5044795;28;20077;-46
2022/07/23 07:06:06;;;;;;;10.23;7.28;;;;;;;23.62;100.00;96503.50;5043741;28;20091;-47
2022/07/23 07:08:34;;;;;;;8.52;7.15;;;;;;;23.50;100.00;96512.53;5045265;28;20167;-52
2022/07/23 07:11:03;;;;;;;8.93;7.03;;;;;;;23.61;100.00;96498.34;5044274;28;20076;-49
2022/07/23 07:13:31;;;;;;;10.13;6.70;;;;;;;24.05;100.00;96474.75;5045367;28;20088;-51
2022/07/23 07:15:59;;;;;;;8.15;7.13;;;;;;;24.01;100.00;96482.50;5041808;28;20080;-48
2022/07/23 07:18:28;;;;;;;7.90;6.72;;;;;;;24.40;100.00;96491.09;5042590;28;20092;-53
2022/07/23 07:20:57;;;;;;;10.35;7.57;;;;;;;24.94;100.00;96488.31;5044155;28;20107;-55
2022/07/23 07:23:27;;;;;;;10.40;6.83;;;;;;;24.37;100.00;96486.13;5044348;28;20088;-54
2022/07/23 07:25:55;;;;;;;8.88;7.97;;;;;;;24.14;100.00;96490.38;5045508;28;20084;-49
2022/07/23 07:28:23;;;;;;;9.60;7.78;;;;;;;23.91;100.00;96484.91;5043460;28;20069;-50
2022/07/23 07:30:52;;;;;;;8.70;7.20;;;;;;;24.33;100.00;96490.34;5044338;28;20088;-49
2022/07/23 07:33:20;;;;;;;9.25;7.90;;;;;;;24.15;100.00;96475.03;5044263;28;20088;-55
2022/07/23 07:35:49;;;;;;;8.55;7.68;;;;;;;24.12;100.00;96470.94;5045869;28;20089;-48
2022/07/23 07:38:17;;;;;;;9.13;8.13;;;;;;;24.46;100.00;96468.56;5044416;28;20083;-46
2022/07/23 07:40:47;;;;;;;8.40;7.55;;;;;;;24.66;100.00;96473.63;5043556;28;20469;-59
2022/07/23 07:43:16;;;;;;;8.80;7.55;;;;;;;24.77;100.00;96472.81;5042637;28;20103;-58
2022/07/23 07:45:44;;;;;;;9.43;7.75;;;;;;;24.76;100.00;96483.84;5043115;28;21849;-56
2022/07/23 07:48:12;;;;;;;9.15;8.20;;;;;;;24.52;100.00;96483.00;5043947;28;20096;-56
2022/07/23 07:50:41;;;;;;;9.90;8.23;;;;;;;24.73;100.00;96468.94;5044728;28;20076;-48
2022/07/23 07:53:09;;;;;;;12.55;8.15;;;;;;;24.18;100.00;96474.56;5043200;28;20587;-56
2022/07/23 07:55:38;;;;;;;10.05;8.30;;;;;;;24.44;100.00;96491.44;5044885;28;20072;-55
2022/07/23 07:58:08;;;;;;;9.30;7.72;;;;;;;24.42;100.00;96501.63;5043561;28;20080;-49
2022/07/23 08:00:37;;;;;;;10.80;8.75;;;;;;;24.42;100.00;96499.75;5042027;28;20072;-56
2022/07/23 08:03:05;;;;;;;9.75;8.18;;;;;;;24.23;100.00;96498.97;5043680;28;20079;-52
2022/07/23 08:05:34;;;;;;;11.13;7.70;;;;;;;23.71;100.00;96514.81;5043246;28;20064;-47
2022/07/23 08:08:02;;;;;;;10.93;8.07;;;;;;;23.62;100.00;96527.72;5044708;28;20095;-47
2022/07/23 08:10:32;;;;;;;8.70;7.88;;;;;;;23.95;100.00;96514.91;5042569;28;20091;-53
2022/07/23 08:13:01;;;;;;;11.40;7.97;;;;;;;23.86;100.00;96527.88;5042929;28;20083;-51
2022/07/23 08:15:31;;;;;;;9.25;8.30;;;;;;;24.03;100.00;96538.84;5044912;28;20674;-48
2022/07/23 08:17:59;;;;;;;;;;;;;;;24.13;100.00;96541.81;5039686;28;20077;-49
2022/07/23 08:20:28;;;;;;;9.48;8.18;;;;;;;23.50;100.00;96536.75;5041316;28;19952;-61
2022/07/23 08:22:58;;;;;;;9.40;8.40;;;;;;;23.52;100.00;96543.56;5043075;28;20088;-57
2022/07/23 08:25:27;;;;;;;9.23;8.32;;;;;;;23.72;100.00;96529.91;5044588;28;20077;-47
2022/07/23 08:27:56;;;;;;;10.38;8.57;;;;;;;23.73;100.00;96539.63;5044280;28;20077;-53
2022/07/23 08:30:25;;;;;;;12.70;8.93;;;;;;;24.11;100.00;96525.88;5044798;28;20080;-52
2022/07/23 08:32:59;;;;;;;9.48;8.30;;;;;;;24.42;100.00;96513.22;5043402;28;20084;-52
2022/07/23 08:35:30;;;;;;;11.27;8.90;;;;;;;24.55;100.00;96523.81;5041341;28;20085;-50
2022/07/23 08:37:59;;;;;;;9.00;8.10;;;;;;;24.34;100.00;96530.53;5043052;28;20045;-51
2022/07/23 08:40:29;;;;;;;9.27;8.30;;;;;;;25.04;100.00;96532.53;5044187;28;20088;-55
2022/07/23 08:42:57;;;;;;;;;;;;;;;25.11;100.00;96537.84;5044454;28;20092;-52
2022/07/23 08:45:27;;;;;;;9.05;8.10;;;;;;;25.13;100.00;96546.53;5042743;28;19971;-54
2022/07/23 08:47:59;;;;;;;10.10;8.70;;;;;;;25.48;100.00;96534.91;5044006;28;20087;-52
2022/07/23 08:50:30;;;;;;;10.15;8.70;;;;;;;25.66;100.00;96533.91;5043748;28;20095;-54
2022/07/23 08:53:00;;;;;;;13.00;8.65;;;;;;;25.58;100.00;96538.63;5044804;28;20081;-55
2022/07/23 08:55:28;;;;;;;10.13;9.00;;;;;;;24.90;100.00;96541.91;5043326;28;20076;-53
2022/07/23 08:57:56;;;;;;;10.07;9.07;;;;;;;25.02;100.00;96545.47;5043084;28;20484;-51
2022/07/23 09:00:25;;;;;;;10.05;8.95;;;;;;;24.54;100.00;96548.31;5044215;28;20080;-52
2022/07/23 09:02:53;;;;;;;10.52;9.02;;;;;;;24.80;100.00;96585.63;5043285;28;20099;-47
2022/07/23 09:05:23;;;;;;;10.43;9.32;;;;;;;25.01;100.00;96559.16;5046034;28;20100;-49
2022/07/23 09:08:07;;;;;;;9.90;8.60;;;;;;;25.02;100.00;96587.81;5048857;28;20080;-55
2022/07/23 09:10:44;;;;;;;9.23;8.35;;;;;;;24.30;100.00;96593.22;5047295;28;20480;-58
2022/07/23 09:13:31;;;;;;;12.35;9.25;;;;;;;24.58;100.00;96601.53;5047887;28;20079;-45
2022/07/23 09:16:01;;;;;;;10.10;8.32;;;;;;;25.03;100.00;96582.16;5051181;28;20072;-46
2022/07/23 09:18:31;;;;;;;10.68;9.60;;;;;;;25.20;100.00;96578.81;5049489;28;20084;-51
2022/07/23 09:21:21;;;;;;;8.75;7.85;;;;;;;25.10;100.00;96582.88;5049239;28;20076;-49
2022/07/23 09:23:55;;;;;;;11.68;8.93;;;;;;;25.40;100.00;96571.19;5048817;28;20081;-47
2022/07/23 09:26:33;;;;;;;9.68;8.20;;;;;;;24.73;100.00;96568.75;5047191;28;20526;-57
2022/07/23 09:29:08;;;;;;;13.00;8.18;;;;;;;25.16;100.00;96569.53;5050870;28;20076;-50
2022/07/23 09:31:46;;;;;;;12.93;8.85;;;;;;;24.99;100.00;96583.69;5050331;28;20535;-53
2022/07/23 09:34:17;;;;;;;9.02;8.02;;;;;;;24.81;100.00;96575.66;5054222;28;20080;-50
2022/07/23 09:36:47;;;;;;;10.50;8.32;;;;;;;25.88;100.00;96574.63;5055508;28;20084;-45
2022/07/23 09:39:25;;;;;;;8.98;7.72;;;;;;;25.81;100.00;96566.69;5052643;28;20088;-54
2022/07/23 09:41:53;;;;;;;10.75;7.90;;;;;;;25.78;100.00;96567.97;5059498;28;20142;-45
2022/07/23 09:44:22;;;;;;;10.27;7.13;;;;;;;26.15;100.00;96569.50;5053899;28;20095;-53
2022/07/23 09:46:59;;;;;;;8.68;7.13;;;;;;;26.04;100.00;96579.31;5055173;28;20080;-51
2022/07/23 09:49:28;;;;;;;7.78;6.82;;;;;;;26.02;100.00;96581.44;5054593;28;20073;-57
2022/07/23 09:52:01;;;;;;;9.90;7.15;;;;;;;26.56;100.00;96571.13;5058645;28;20122;-50
2022/07/23 09:54:32;;;;;;;8.15;7.20;;;;;;;27.14;100.00;96563.72;5054775;28;20087;-56
2022/07/23 09:57:04;;;;;;;8.85;7.30;;;;;;;26.95;100.00;96573.97;5053145;28;20085;-53
2022/07/23 09:59:35;;;;;;;10.57;8.38;;;;;;;27.06;100.00;96567.66;5052590;28;20068;-52
2022/07/23 10:02:05;;;;;;;9.18;7.45;;;;;;;27.49;100.00;96563.44;5052849;28;20095;-51
2022/07/23 10:04:34;;;;;;;10.50;7.75;;;;;;;27.14;100.00;96558.31;5052589;28;20091;-52
2022/07/23 10:07:07;;;;;;;8.60;7.65;;;;;;;27.66;100.00;96561.50;5052575;28;20084;-59
2022/07/23 10:09:37;;;;;;;9.02;7.70;;;;;;;27.21;100.00;96567.91;5050751;28;21926;-56
2022/07/23 10:14:52;;;;;;;10.18;7.72;;;;;;;27.75;100.00;96556.47;5034031;28;20492;-52
2022/07/23 10:17:20;;;;;;;8.55;7.68;;;;;;;27.96;100.00;96551.34;5045389;28;20088;-46
2022/07/23 10:19:49;;;;;;;9.95;7.82;;;;;;;28.11;100.00;96549.63;5048281;28;20081;-46
2022/07/23 10:22:22;;;;;;;10.00;7.80;;;;;;;28.44;100.00;96547.81;5044617;28;20531;-53
2022/07/23 10:24:54;;;;;;;10.80;8.50;;;;;;;28.42;100.00;96552.69;5051027;28;20068;-49
2022/07/23 10:27:46;;;;;;;9.32;8.38;;;;;;;28.84;100.00;96535.72;5052523;28;20076;-49
2022/07/23 10:30:19;;;;;;;9.80;8.00;;;;;;;29.26;100.00;96534.97;5045538;28;20576;-53
2022/07/23 10:32:57;;;;;;;9.25;7.50;;;;;;;28.95;100.00;96537.44;5049712;28;20089;-52
2022/07/23 10:35:30;;;;;;;8.18;7.38;;;;;;;28.68;100.00;96523.09;5050839;28;20081;-54
2022/07/23 10:38:06;;;;;;;10.13;7.38;;;;;;;29.05;100.00;96542.16;5048781;28;20077;-57
2022/07/23 10:40:35;;;;;;;9.55;7.55;;;;;;;28.74;100.00;96524.78;5051822;28;20080;-51
2022/07/23 10:43:14;;;;;;;9.35;7.60;;;;;;;29.26;100.00;96524.91;5049468;28;20574;-46
2022/07/23 10:45:49;;;;;;;9.07;7.45;;;;;;;29.01;100.00;96514.69;5050775;28;20091;-52
2022/07/23 10:48:20;;;;;;;8.30;7.50;;;;;;;28.72;100.00;96507.91;5044880;28;20523;-51
2022/07/23 10:51:07;;;;;;;9.57;7.68;;;;;;;28.98;100.00;96507.03;5045258;28;20060;-48
2022/07/23 10:53:57;;;;;;;8.52;7.72;;;;;;;29.31;100.00;96505.91;5051438;28;20088;-54
2022/07/23 10:56:49;;;;;;;9.13;7.82;;;;;;;29.44;100.00;96499.19;5049423;28;20095;-51
2022/07/23 10:59:18;;;;;;;9.52;7.93;;;;;;;29.00;100.00;96494.03;5047887;28;20480;-58
2022/07/23 11:01:46;;;;;;;8.45;6.63;;;;;;;29.33;100.00;96500.22;5050087;28;20088;-55
2022/07/23 11:04:16;;;;;;;9.27;7.22;;;;;;;29.36;100.00;96494.28;5050648;28;20073;-51
2022/07/23 11:07:11;;;;;;;8.05;7.25;;;;;;;30.30;100.00;96495.19;5050683;28;20485;-50
2022/07/23 11:09:42;;;;;;;6.93;6.13;;;;;;;29.36;100.00;96493.47;5044721;28;20089;-58
2022/07/23 11:12:36;;;;;;;8.63;6.22;;;;;;;29.69;100.00;96497.72;5049766;28;20096;-53
2022/07/23 11:15:07;;;;;;;7.38;6.50;;;;;;;29.75;100.00;96485.78;5048869;28;20088;-57
2022/07/23 11:17:38;;;;;;;6.65;5.40;;;;;;;29.66;100.00;96481.94;5050825;28;20087;-52
2022/07/23 11:20:21;;;;;;;6.90;5.85;;;;;;;29.83;100.00;96495.31;5050299;28;20083;-60
2022/07/23 11:22:52;;;;;;;9.38;6.20;;;;;;;30.15;100.00;96474.22;5044722;28;20088;-51
2022/07/23 11:25:36;;;;;;;7.03;6.32;;;;;;;30.35;100.00;96484.34;5050609;28;20453;-48
2022/07/23 11:28:14;;;;;;;6.90;6.05;;;;;;;30.62;100.00;96478.63;5049821;28;20091;-51
2022/07/23 11:30:44;;;;;;;7.00;6.05;;;;;;;30.32;100.00;96473.16;5049707;28;20048;-48
2022/07/23 11:33:21;;;;;;;5.85;5.20;;;;;;;30.07;100.00;96477.44;5048303;28;20274;-49
2022/07/23 11:36:07;;;;;;;8.38;5.50;;;;;;;30.69;96.82;96471.00;5050259;28;20081;-53
2022/07/23 11:38:38;;;;;;;7.18;5.43;;;;;;;30.15;100.00;96473.38;5045220;28;20469;-57
2022/07/23 11:41:08;;;;;;;6.20;5.30;;;;;;;30.39;100.00;96463.66;5043766;28;20084;-49